Allensburg, Ohio
Current Conditions -  °F | °C
As of 3:54 AM on Friday 19 Dec 2014 (Local Time) from KILN Reporting Station
Overcast Overcast  
Wind Chill: 19°   Ceiling: 1600
Heat Index: 27°   Visibility: 9mi
Dew Point: 19°   Wind: 7mph
Humidity: 72%   Direction: 350°N
Pressure: 30.21"   Gusts: NA
Location:  39.1546°N, 83.569°W
Report Text: KILN 190854Z AUTO 35006KT 9SM OVC016 M03/M07 A3021 RMK AO2 SLP260 T10281072 58001
Loading
Personal Weather Stations






























Interactive Weather Map New forecast layout! Learn more

10-Day Weather Forecast

Advertisements
Track Severe Weather on mobile